createdAt,value
2023-05-18T00:02:13.797Z,0.90
2023-05-18T00:05:16.893Z,0.90
2023-05-18T00:08:19.468Z,0.70
2023-05-18T00:11:22.387Z,0.60
2023-05-18T00:14:25.656Z,0.80
2023-05-18T00:17:29.407Z,0.77
2023-05-18T00:20:32.582Z,0.70
2023-05-18T00:23:35.424Z,0.90
2023-05-18T00:26:38.690Z,0.70
2023-05-18T00:29:41.368Z,0.52
2023-05-18T00:32:43.765Z,0.60
2023-05-18T00:35:47.071Z,0.70
2023-05-18T00:38:50.205Z,0.80
2023-05-18T00:41:54.168Z,0.70
2023-05-18T00:44:59.638Z,0.70
2023-05-18T00:48:02.200Z,0.65
2023-05-18T00:51:05.161Z,0.57
2023-05-18T00:54:08.524Z,0.75
2023-05-18T00:57:11.294Z,0.70
2023-05-18T01:00:14.152Z,0.70
2023-05-18T01:03:18.198Z,0.68
2023-05-18T01:06:23.015Z,0.80
2023-05-18T01:09:25.587Z,0.70
2023-05-18T01:12:27.878Z,0.70
2023-05-18T01:15:30.367Z,0.80
2023-05-18T01:18:32.900Z,0.70
2023-05-18T01:21:35.633Z,0.90
2023-05-18T01:24:38.880Z,0.77
2023-05-18T01:27:42.211Z,0.80
2023-05-18T01:30:44.800Z,0.65
2023-05-18T01:33:47.830Z,0.73
2023-05-18T01:36:51.202Z,0.73
2023-05-18T01:39:53.830Z,0.77
2023-05-18T01:42:56.274Z,0.70
2023-05-18T01:45:59.188Z,0.68
2023-05-18T01:49:02.288Z,0.50
2023-05-18T01:52:04.466Z,0.80
2023-05-18T01:55:07.353Z,0.50
2023-05-18T01:58:09.706Z,0.50
2023-05-18T02:01:12.471Z,0.70
2023-05-18T02:04:14.848Z,0.73
2023-05-18T02:07:17.317Z,0.70
2023-05-18T02:10:19.644Z,0.70
2023-05-18T02:13:22.012Z,0.70
2023-05-18T02:16:24.352Z,0.43
2023-05-18T02:19:27.095Z,0.50
2023-05-18T02:22:29.892Z,0.47
2023-05-18T02:25:32.530Z,0.45
2023-05-18T02:28:35.252Z,0.55
2023-05-18T02:31:40.768Z,0.65
2023-05-18T02:34:42.969Z,0.73
2023-05-18T02:37:46.187Z,0.60
2023-05-18T02:40:48.777Z,0.70
2023-05-18T02:43:52.531Z,0.70
2023-05-18T02:46:55.137Z,0.70
2023-05-18T02:49:57.828Z,0.70
2023-05-18T02:53:00.505Z,0.70
2023-05-18T02:56:03.346Z,0.60
2023-05-18T02:59:27.566Z,0.80
2023-05-18T03:02:30.331Z,0.50
2023-05-18T03:05:37.130Z,0.73
2023-05-18T03:08:39.528Z,0.60
2023-05-18T03:11:42.044Z,0.63
2023-05-18T03:14:45.806Z,0.50
2023-05-18T03:17:49.018Z,0.70
2023-05-18T03:20:51.414Z,0.65
2023-05-18T03:23:53.773Z,0.60
2023-05-18T03:26:56.757Z,0.60
2023-05-18T03:30:00.730Z,0.77
2023-05-18T03:33:05.311Z,0.70
2023-05-18T03:36:07.758Z,0.60
2023-05-18T03:39:10.450Z,0.70
2023-05-18T03:42:13.266Z,0.90
2023-05-18T03:45:15.635Z,0.73
2023-05-18T03:48:18.896Z,0.80
2023-05-18T03:51:21.263Z,0.80
2023-05-18T03:54:23.905Z,0.60
2023-05-18T03:57:26.779Z,0.70
2023-05-18T04:00:30.364Z,0.65
2023-05-18T04:03:33.358Z,0.70
2023-05-18T04:06:37.425Z,0.82
2023-05-18T04:09:41.049Z,0.80
2023-05-18T04:12:44.086Z,1.05
2023-05-18T04:15:46.371Z,0.80
2023-05-18T04:18:48.984Z,0.70
2023-05-18T04:21:51.995Z,0.77
2023-05-18T04:24:54.964Z,0.70
2023-05-18T04:27:58.377Z,0.70
2023-05-18T04:31:01.516Z,0.77
2023-05-18T04:34:03.880Z,0.80
2023-05-18T04:37:08.475Z,0.63
2023-05-18T04:40:14.048Z,0.80
2023-05-18T04:43:17.843Z,0.70
2023-05-18T04:46:21.945Z,0.80
2023-05-18T04:49:24.570Z,0.90
2023-05-18T04:52:27.939Z,1.00
2023-05-18T04:55:32.096Z,0.93
2023-05-18T04:58:40.562Z,0.80
2023-05-18T05:01:43.490Z,0.90
2023-05-18T05:04:47.277Z,0.90
2023-05-18T05:07:50.409Z,1.00
2023-05-18T05:10:52.849Z,0.80
2023-05-18T05:13:59.563Z,0.90
2023-05-18T05:17:02.166Z,0.98
2023-05-18T05:20:04.840Z,0.80
2023-05-18T05:23:07.756Z,0.80
2023-05-18T05:26:14.742Z,0.80
2023-05-18T05:29:17.977Z,0.73
2023-05-18T05:32:21.135Z,0.70
2023-05-18T05:35:24.092Z,0.88
2023-05-18T05:38:26.923Z,0.90
2023-05-18T05:41:31.751Z,0.68
2023-05-18T05:44:35.194Z,0.80
2023-05-18T05:47:38.203Z,0.95
2023-05-18T05:50:40.921Z,0.80
2023-05-18T05:53:43.556Z,0.85
2023-05-18T05:56:46.646Z,0.90
2023-05-18T05:59:52.141Z,1.08
2023-05-18T06:02:54.976Z,0.90
2023-05-18T06:06:06.731Z,0.70
2023-05-18T06:09:10.047Z,0.80
2023-05-18T06:12:12.909Z,1.33
2023-05-18T06:15:16.083Z,1.20
2023-05-18T06:18:20.719Z,0.93
2023-05-18T06:21:24.986Z,1.05
2023-05-18T06:24:27.925Z,0.98
2023-05-18T06:27:55.769Z,0.80
2023-05-18T06:31:20.672Z,1.13
2023-05-18T06:34:30.977Z,1.00
2023-05-18T06:37:34.062Z,1.98
2023-05-18T06:40:36.478Z,5.78
2023-05-18T06:43:38.817Z,22.38
2023-05-18T06:46:56.721Z,17.65
2023-05-18T06:50:03.864Z,14.40
2023-05-18T06:53:06.525Z,12.88
2023-05-18T06:56:08.966Z,11.05
2023-05-18T06:59:12.697Z,9.80
2023-05-18T07:02:15.665Z,8.35
2023-05-18T07:05:18.488Z,6.88
2023-05-18T07:08:20.639Z,6.18
2023-05-18T07:11:23.341Z,5.28
2023-05-18T07:14:25.918Z,4.85
2023-05-18T07:17:28.222Z,4.57
2023-05-18T07:20:37.753Z,3.78
2023-05-18T07:23:41.366Z,3.55
2023-05-18T07:26:44.609Z,3.30
2023-05-18T07:29:48.187Z,2.92
2023-05-18T07:32:50.501Z,2.70
2023-05-18T07:35:53.299Z,2.75
2023-05-18T07:38:55.568Z,2.35
2023-05-18T07:41:58.542Z,2.30
2023-05-18T07:45:02.071Z,2.15
2023-05-18T07:48:06.092Z,1.98
2023-05-18T07:51:09.443Z,2.22
2023-05-18T07:54:12.993Z,2.58
2023-05-18T07:57:16.475Z,2.22
2023-05-18T08:00:19.143Z,3.00
2023-05-18T08:03:22.597Z,3.28
2023-05-18T08:06:26.418Z,3.33
2023-05-18T08:09:29.468Z,3.10
2023-05-18T08:12:31.571Z,3.40
2023-05-18T08:15:34.481Z,3.13
2023-05-18T08:18:36.861Z,2.40
2023-05-18T08:21:39.797Z,2.35
2023-05-18T08:24:43.286Z,2.50
2023-05-18T08:27:45.556Z,2.58
2023-05-18T08:30:48.206Z,2.20
2023-05-18T08:33:50.927Z,2.25
2023-05-18T08:36:54.859Z,1.80
2023-05-18T08:39:58.004Z,2.05
2023-05-18T08:43:00.887Z,1.98
2023-05-18T08:46:03.967Z,1.75
2023-05-18T08:49:06.719Z,1.70
2023-05-18T08:52:09.611Z,1.92
2023-05-18T08:55:12.485Z,1.70
2023-05-18T08:58:15.357Z,1.75
2023-05-18T09:01:18.311Z,4.70
2023-05-18T09:04:21.411Z,4.47
2023-05-18T09:07:23.993Z,4.35
2023-05-18T09:10:26.882Z,3.90
2023-05-18T09:13:30.352Z,3.75
2023-05-18T09:16:33.123Z,3.60
2023-05-18T09:19:36.359Z,3.40
2023-05-18T09:22:38.972Z,2.88
2023-05-18T09:25:42.450Z,2.75
2023-05-18T09:28:46.123Z,2.88
2023-05-18T09:31:49.379Z,2.70
2023-05-18T09:34:52.468Z,2.72
2023-05-18T09:37:55.085Z,2.42
2023-05-18T09:40:57.270Z,2.33
2023-05-18T09:44:00.414Z,2.10
2023-05-18T09:47:03.570Z,2.15
2023-05-18T09:50:06.419Z,1.80
2023-05-18T09:53:09.428Z,1.92
2023-05-18T09:56:12.643Z,1.95
2023-05-18T09:59:16.150Z,1.90
2023-05-18T10:02:19.418Z,2.03
2023-05-18T10:05:23.003Z,1.80
2023-05-18T10:08:26.137Z,1.92
2023-05-18T10:11:29.366Z,1.70
2023-05-18T10:14:32.321Z,1.33
2023-05-18T10:17:34.914Z,1.55
2023-05-18T10:20:38.236Z,1.38
2023-05-18T10:23:41.359Z,1.67
2023-05-18T10:26:44.427Z,1.30
2023-05-18T10:29:47.840Z,1.52
2023-05-18T10:32:51.222Z,1.55
2023-05-18T10:35:54.788Z,1.50
2023-05-18T10:38:58.614Z,1.10
2023-05-18T10:42:01.632Z,1.10
2023-05-18T10:45:04.768Z,1.50
2023-05-18T10:48:07.355Z,1.30
2023-05-18T10:51:10.629Z,1.13
2023-05-18T10:54:13.822Z,1.23
2023-05-18T10:57:16.867Z,1.45
2023-05-18T11:00:19.988Z,1.23
2023-05-18T11:03:23.022Z,1.40
2023-05-18T11:06:25.844Z,1.10
2023-05-18T11:09:28.881Z,0.98
2023-05-18T11:12:31.980Z,1.17
2023-05-18T11:15:35.989Z,1.00
2023-05-18T11:18:39.665Z,1.00
2023-05-18T11:21:42.551Z,0.90
2023-05-18T11:24:45.945Z,0.88
2023-05-18T11:27:49.364Z,0.90
2023-05-18T11:30:51.389Z,0.90
2023-05-18T11:33:54.738Z,1.00
2023-05-18T11:36:58.436Z,1.10
2023-05-18T11:40:04.392Z,0.93
2023-05-18T11:43:09.223Z,0.73
2023-05-18T11:46:11.987Z,1.08
2023-05-18T11:49:14.347Z,0.90
2023-05-18T11:52:16.974Z,0.85
2023-05-18T11:55:19.738Z,0.90
2023-05-18T11:58:22.316Z,1.20
2023-05-18T12:01:25.391Z,1.00
2023-05-18T12:04:28.849Z,0.80
2023-05-18T12:07:31.677Z,1.10
2023-05-18T12:10:34.882Z,1.58
2023-05-18T12:13:38.796Z,0.93
2023-05-18T12:16:41.864Z,1.00
2023-05-18T12:19:45.169Z,1.05
2023-05-18T12:22:48.321Z,1.10
2023-05-18T12:25:50.702Z,1.40
2023-05-18T12:28:53.427Z,0.98
2023-05-18T12:31:57.986Z,1.10
2023-05-18T12:35:01.293Z,1.23
2023-05-18T12:38:04.521Z,0.98
2023-05-18T12:41:07.345Z,0.90
2023-05-18T12:44:10.156Z,0.93
2023-05-18T12:47:12.695Z,0.98
2023-05-18T12:50:15.178Z,1.20
2023-05-18T12:53:17.709Z,0.90
2023-05-18T12:56:20.909Z,1.17
2023-05-18T12:59:24.203Z,1.00
2023-05-18T13:02:27.532Z,1.00
2023-05-18T13:05:30.791Z,0.90
2023-05-18T13:08:34.193Z,1.00
2023-05-18T13:11:37.235Z,0.90
2023-05-18T13:14:39.933Z,0.70
2023-05-18T13:17:42.304Z,0.70
2023-05-18T13:20:45.106Z,1.20
2023-05-18T13:23:47.805Z,0.85
2023-05-18T13:26:50.875Z,0.90
2023-05-18T13:29:53.514Z,1.70
2023-05-18T13:32:56.588Z,2.00
2023-05-18T13:35:59.046Z,2.00
2023-05-18T13:39:01.622Z,1.50
2023-05-18T13:42:04.631Z,1.90
2023-05-18T13:45:07.040Z,2.10
2023-05-18T13:48:10.667Z,1.80
2023-05-18T13:51:13.732Z,1.90
2023-05-18T13:54:16.154Z,1.88
2023-05-18T13:57:18.883Z,1.70
2023-05-18T14:00:21.696Z,1.70
2023-05-18T14:03:25.383Z,2.00
2023-05-18T14:06:28.227Z,2.20
2023-05-18T14:09:30.969Z,1.80
2023-05-18T14:12:33.882Z,1.98
2023-05-18T14:15:37.456Z,1.60
2023-05-18T14:18:40.690Z,2.10
2023-05-18T14:21:43.586Z,2.10
2023-05-18T14:24:46.284Z,1.60
2023-05-18T14:27:49.022Z,1.63
2023-05-18T14:30:51.922Z,1.63
2023-05-18T14:33:55.388Z,1.42
2023-05-18T14:36:58.590Z,1.50
2023-05-18T14:40:01.398Z,1.30
2023-05-18T14:43:04.765Z,1.10
2023-05-18T14:46:08.996Z,1.27
2023-05-18T14:49:12.262Z,0.90
2023-05-18T14:52:15.850Z,1.10
2023-05-18T14:55:18.164Z,1.00
2023-05-18T14:58:21.232Z,0.90
2023-05-18T15:01:24.213Z,0.90
2023-05-18T15:04:26.746Z,0.85
2023-05-18T15:07:29.867Z,0.80
2023-05-18T15:10:32.746Z,0.73
2023-05-18T15:13:36.291Z,0.90
2023-05-18T15:16:39.887Z,0.90
2023-05-18T15:19:43.672Z,0.75
2023-05-18T15:22:46.507Z,0.90
2023-05-18T15:25:50.040Z,0.70
2023-05-18T15:28:52.910Z,0.80
2023-05-18T15:31:55.495Z,0.80
2023-05-18T15:34:58.447Z,0.70
2023-05-18T15:38:01.196Z,0.70
2023-05-18T15:41:03.898Z,0.80
2023-05-18T15:44:06.739Z,0.85
2023-05-18T15:47:09.082Z,0.75
2023-05-18T15:50:11.932Z,1.77
2023-05-18T15:53:14.344Z,1.73
2023-05-18T15:56:17.027Z,1.48
2023-05-18T15:59:19.146Z,1.90
2023-05-18T16:02:24.373Z,1.70
2023-05-18T16:05:27.900Z,1.80
2023-05-18T16:08:32.107Z,1.67
2023-05-18T16:11:35.641Z,1.90
2023-05-18T16:14:38.498Z,1.70
2023-05-18T16:17:41.092Z,1.85
2023-05-18T16:20:44.774Z,1.60
2023-05-18T16:23:47.616Z,1.73
2023-05-18T16:26:50.095Z,1.80
2023-05-18T16:29:52.502Z,1.80
2023-05-18T16:32:55.295Z,1.70
2023-05-18T16:35:58.164Z,1.70
2023-05-18T16:39:01.821Z,2.10
2023-05-18T16:42:04.598Z,1.85
2023-05-18T16:45:07.994Z,1.80
2023-05-18T16:48:10.866Z,1.90
2023-05-18T16:51:13.121Z,1.73
2023-05-18T16:54:16.258Z,1.75
2023-05-18T16:57:19.766Z,1.88
2023-05-18T17:00:23.319Z,1.90
2023-05-18T17:03:26.215Z,1.67
2023-05-18T17:06:29.386Z,1.88
2023-05-18T17:09:32.629Z,1.77
2023-05-18T17:12:35.493Z,2.10
2023-05-18T17:15:38.938Z,1.83
2023-05-18T17:18:43.020Z,1.65
2023-05-18T17:21:46.106Z,2.20
2023-05-18T17:24:50.115Z,1.77
2023-05-18T17:27:53.241Z,1.80
2023-05-18T17:30:55.994Z,1.80
2023-05-18T17:33:59.550Z,1.80
2023-05-18T17:37:02.745Z,2.10
2023-05-18T17:40:06.180Z,1.80
2023-05-18T17:43:10.131Z,2.00
2023-05-18T17:46:14.193Z,2.15
2023-05-18T17:49:17.899Z,2.05
2023-05-18T17:52:20.606Z,2.00
2023-05-18T17:55:23.426Z,2.10
2023-05-18T17:58:26.524Z,1.95
2023-05-18T18:01:29.838Z,2.17
2023-05-18T18:04:32.720Z,1.90
2023-05-18T18:07:36.670Z,2.20
2023-05-18T18:10:40.529Z,1.85
2023-05-18T18:13:43.674Z,1.92
2023-05-18T18:16:46.636Z,2.20
2023-05-18T18:19:50.017Z,1.77
2023-05-18T18:22:53.203Z,2.17
2023-05-18T18:25:56.925Z,1.90
2023-05-18T18:29:00.074Z,2.35
2023-05-18T18:32:02.632Z,2.17
2023-05-18T18:35:05.879Z,2.17
2023-05-18T18:38:08.560Z,2.15
2023-05-18T18:41:11.438Z,2.05
2023-05-18T18:44:14.570Z,2.20
2023-05-18T18:47:17.806Z,2.28
2023-05-18T18:50:21.344Z,2.05
2023-05-18T18:53:24.554Z,2.03
2023-05-18T18:56:27.850Z,2.03
2023-05-18T18:59:30.980Z,1.73
2023-05-18T19:02:34.215Z,1.67
2023-05-18T19:05:37.415Z,1.45
2023-05-18T19:08:40.436Z,1.15
2023-05-18T19:11:42.768Z,1.40
2023-05-18T19:14:45.383Z,1.38
2023-05-18T19:17:48.802Z,1.27
2023-05-18T19:20:52.447Z,1.13
2023-05-18T19:23:56.543Z,1.10
2023-05-18T19:26:59.188Z,1.10
2023-05-18T19:30:02.835Z,1.20
2023-05-18T19:33:06.001Z,0.98
2023-05-18T19:36:09.082Z,0.90
2023-05-18T19:39:11.678Z,1.02
2023-05-18T19:42:14.112Z,1.00
2023-05-18T19:45:16.482Z,1.00
2023-05-18T19:48:19.737Z,1.23
2023-05-18T19:51:23.017Z,1.15
2023-05-18T19:54:26.035Z,1.20
2023-05-18T19:57:28.786Z,0.98
2023-05-18T20:00:31.955Z,1.13
2023-05-18T20:03:35.157Z,0.98
2023-05-18T20:06:38.859Z,1.00
2023-05-18T20:09:42.193Z,1.10
2023-05-18T20:12:45.587Z,0.90
2023-05-18T20:15:49.336Z,1.10
2023-05-18T20:18:52.408Z,0.98
2023-05-18T20:21:55.590Z,0.93
2023-05-18T20:24:59.290Z,1.00
2023-05-18T20:28:02.983Z,1.02
2023-05-18T20:31:06.777Z,1.10
2023-05-18T20:34:09.813Z,1.00
2023-05-18T20:37:13.111Z,1.05
2023-05-18T20:40:16.177Z,0.90
2023-05-18T20:43:19.230Z,1.00
2023-05-18T20:46:22.571Z,0.85
2023-05-18T20:49:25.679Z,0.90
2023-05-18T20:52:28.617Z,1.00
2023-05-18T20:55:31.360Z,1.00
2023-05-18T20:58:34.137Z,0.95
2023-05-18T21:01:37.026Z,0.95
2023-05-18T21:04:39.419Z,1.00
2023-05-18T21:07:42.241Z,1.20
2023-05-18T21:10:45.623Z,0.88
2023-05-18T21:13:49.585Z,1.00
2023-05-18T21:16:53.383Z,1.00
2023-05-18T21:19:56.816Z,0.90
2023-05-18T21:23:00.559Z,1.00
2023-05-18T21:26:03.588Z,1.15
2023-05-18T21:29:06.774Z,0.95
2023-05-18T21:32:10.035Z,0.95
2023-05-18T21:35:13.193Z,1.08
2023-05-18T21:38:16.738Z,1.00
2023-05-18T21:41:19.315Z,1.00
2023-05-18T21:44:22.847Z,0.90
2023-05-18T21:47:25.733Z,1.00
2023-05-18T21:50:29.065Z,0.98
2023-05-18T21:53:32.423Z,0.80
2023-05-18T21:56:34.936Z,1.00
2023-05-18T21:59:37.587Z,0.90
2023-05-18T22:02:40.395Z,0.90
2023-05-18T22:05:43.634Z,0.80
2023-05-18T22:08:46.743Z,0.80
2023-05-18T22:11:49.627Z,0.80
2023-05-18T22:14:52.574Z,1.08
2023-05-18T22:17:55.373Z,0.90
2023-05-18T22:20:58.312Z,0.88
2023-05-18T22:24:01.116Z,0.90
2023-05-18T22:27:04.154Z,1.00
2023-05-18T22:30:07.291Z,0.80
2023-05-18T22:33:10.793Z,1.10
2023-05-18T22:36:14.777Z,0.90
2023-05-18T22:39:18.139Z,0.93
2023-05-18T22:42:21.670Z,0.80
2023-05-18T22:45:25.108Z,0.90
2023-05-18T22:48:28.359Z,0.90
2023-05-18T22:51:31.823Z,0.75
2023-05-18T22:54:34.293Z,0.90
2023-05-18T22:57:36.661Z,0.90
2023-05-18T23:00:39.418Z,1.00
2023-05-18T23:03:41.778Z,0.80
2023-05-18T23:06:44.563Z,0.80
